Time;durP1;ratioP1;P1;durP2;ratioP2;P2;SDS_P1;SDS_P2;PMS_P1;PMS_P2;Temp;Humidity;BMP_temperature;BMP_pressure;BME280_temperature;BME280_humidity;BME280_pressure;Samples;Min_cycle;Max_cycle;Signal;HPM_P1;HPM_P2
2021/11/08 00:01:04;;;;;;;1.95;0.82;;;18.30;70.00;;;;;;4984659;28;95914;-41
2021/11/08 00:03:38;;;;;;;2.35;0.98;;;18.40;70.00;;;;;;4982763;28;95892;-38
2021/11/08 00:06:09;;;;;;;0.65;0.65;;;18.40;69.90;;;;;;4984969;28;96122;-37
2021/11/08 00:08:41;;;;;;;3.28;0.90;;;18.40;69.80;;;;;;4983932;28;96855;-40
2021/11/08 00:11:13;;;;;;;3.33;1.20;;;18.40;69.80;;;;;;4983734;28;95354;-40
2021/11/08 00:13:45;;;;;;;1.45;0.90;;;18.50;69.80;;;;;;4977849;28;95220;-41
2021/11/08 00:16:29;;;;;;;3.40;0.70;;;18.50;69.70;;;;;;4980484;28;96143;-36
2021/11/08 00:21:49;;;;;;;2.72;0.90;;;18.50;70.30;;;;;;4984128;28;97005;-40
2021/11/08 00:24:24;;;;;;;2.40;1.08;;;18.50;69.60;;;;;;4984439;28;98207;-37
2021/11/08 00:26:55;;;;;;;2.80;1.08;;;18.50;69.60;;;;;;4984925;28;96160;-37
2021/11/08 00:29:25;;;;;;;3.05;1.00;;;18.60;69.60;;;;;;4969698;28;96007;-38
2021/11/08 00:31:55;;;;;;;2.40;1.10;;;18.60;67.10;;;;;;4980963;28;95739;-40
2021/11/08 00:34:27;;;;;;;;;;;18.60;69.30;;;;;;4987371;28;95583;-38
2021/11/08 00:36:58;;;;;;;3.10;0.95;;;18.60;69.30;;;;;;4988303;28;95954;-39
2021/11/08 00:39:29;;;;;;;1.63;0.75;;;18.70;69.00;;;;;;4988171;28;96793;-39
2021/11/08 00:42:00;;;;;;;1.38;0.90;;;18.70;69.00;;;;;;4989118;28;95856;-39
2021/11/08 00:44:32;;;;;;;3.65;1.15;;;18.70;66.70;;;;;;4984585;28;96013;-40
2021/11/08 00:47:08;;;;;;;2.90;1.10;;;18.80;68.70;;;;;;4988592;28;96398;-37
2021/11/08 00:49:40;;;;;;;6.20;1.10;;;18.70;68.70;;;;;;4986963;28;95876;-36
2021/11/08 00:52:11;;;;;;;2.58;1.00;;;18.70;66.30;;;;;;4986935;28;96406;-40
2021/11/08 00:54:41;;;;;;;2.08;1.00;;;18.80;68.80;;;;;;4985281;28;98119;-42
2021/11/08 00:57:13;;;;;;;2.13;1.00;;;18.80;68.70;;;;;;4988146;28;96591;-40
2021/11/08 00:59:43;;;;;;;1.42;0.98;;;18.80;68.50;;;;;;4983724;28;96282;-37
2021/11/08 01:02:18;;;;;;;4.53;0.90;;;18.80;68.50;;;;;;4983473;28;95660;-42
2021/11/08 01:04:50;;;;;;;2.97;1.20;;;18.80;68.40;;;;;;4988511;28;95330;-41
2021/11/08 01:07:22;;;;;;;2.03;1.17;;;18.80;68.30;;;;;;4987741;28;96144;-41
2021/11/08 01:09:53;;;;;;;2.25;1.27;;;18.80;68.20;;;;;;4985972;28;95892;-39
2021/11/08 01:12:25;;;;;;;2.90;1.35;;;18.90;65.90;;;;;;4986659;28;95863;-40
2021/11/08 01:14:58;;;;;;;3.17;1.13;;;18.90;68.20;;;;;;4987800;28;95797;-36
2021/11/08 01:17:30;;;;;;;4.32;1.33;;;18.90;68.20;;;;;;4983569;28;96538;-38
2021/11/08 01:20:03;;;;;;;4.03;1.40;;;18.90;68.00;;;;;;4985583;28;95495;-42
2021/11/08 01:22:35;;;;;;;4.78;1.10;;;18.90;67.90;;;;;;4987447;28;95699;-35
2021/11/08 01:25:06;;;;;;;3.25;1.10;;;18.90;67.90;;;;;;4987354;28;95661;-41
2021/11/08 01:27:43;;;;;;;2.30;1.10;;;18.90;67.70;;;;;;4983252;28;95945;-37
2021/11/08 01:30:27;;;;;;;3.78;1.63;;;18.90;67.30;;;;;;4970108;28;95416;-35
2021/11/08 01:33:09;;;;;;;2.85;1.05;;;19.00;67.30;;;;;;4986697;28;95645;-38
2021/11/08 01:35:45;;;;;;;3.03;1.00;;;19.20;67.00;;;;;;4984776;28;95543;-35
2021/11/08 01:40:50;;;;;;;4.70;1.50;;;19.30;65.50;;;;;;4986868;28;95969;-39
2021/11/08 01:43:24;;;;;;;5.13;1.95;;;19.40;67.00;;;;;;4985529;28;95841;-42
2021/11/08 01:45:54;;;;;;;2.10;1.23;;;19.40;66.90;;;;;;4986623;28;95806;-39
2021/11/08 01:48:26;;;;;;;8.40;1.80;;;19.50;66.80;;;;;;4981982;28;97500;-39
2021/11/08 01:50:56;;;;;;;4.00;1.40;;;19.50;67.00;;;;;;4981975;28;96023;-41
2021/11/08 01:53:26;;;;;;;6.20;2.40;;;19.60;66.80;;;;;;4985382;28;96413;-40
2021/11/08 01:56:01;;;;;;;5.63;2.25;;;19.50;66.70;;;;;;4985614;28;96102;-39
2021/11/08 01:58:34;;;;;;;5.75;2.40;;;19.50;66.60;;;;;;4984565;28;96998;-39
2021/11/08 02:01:06;;;;;;;6.40;2.85;;;19.50;66.60;;;;;;4984083;28;96561;-40
2021/11/08 02:03:37;;;;;;;7.45;2.85;;;19.50;66.60;;;;;;4985217;28;95856;-38
2021/11/08 02:06:08;;;;;;;9.90;2.85;;;19.50;66.60;;;;;;4985933;28;95919;-37
2021/11/08 02:08:41;;;;;;;8.75;2.53;;;19.50;66.70;;;;;;4983650;28;96194;-40
2021/11/08 02:11:12;;;;;;;5.80;2.53;;;19.50;66.80;;;;;;4976397;28;95849;-40
2021/11/08 02:13:44;;;;;;;10.82;3.38;;;19.50;66.80;;;;;;4985576;28;95811;-41
2021/11/08 02:16:16;;;;;;;5.88;2.65;;;19.50;66.70;;;;;;4984469;28;95362;-36
2021/11/08 02:18:47;;;;;;;4.30;2.42;;;19.50;66.70;;;;;;4980308;28;96580;-37
2021/11/08 02:21:17;;;;;;;9.20;2.88;;;19.50;66.70;;;;;;4982599;28;96293;-37
2021/11/08 02:23:48;;;;;;;7.78;2.72;;;19.50;66.70;;;;;;4984255;28;95681;-42
2021/11/08 02:26:18;;;;;;;10.48;3.17;;;19.50;66.60;;;;;;4984690;28;95911;-42
2021/11/08 02:28:53;;;;;;;6.13;2.45;;;19.50;66.90;;;;;;4976100;28;96276;-42
2021/11/08 02:31:24;;;;;;;11.30;3.05;;;19.60;67.00;;;;;;5005545;27;96060;-40
2021/11/08 02:33:56;;;;;;;6.18;2.53;;;19.60;67.10;;;;;;4984980;28;95356;-39
2021/11/08 02:36:25;;;;;;;;;;;19.60;67.00;;;;;;4986697;28;95832;-43
2021/11/08 02:38:57;;;;;;;6.15;3.03;;;19.60;67.00;;;;;;4986198;28;95988;-44
2021/11/08 02:41:28;;;;;;;7.93;3.65;;;19.60;67.00;;;;;;4981270;28;95499;-45
2021/11/08 02:44:03;;;;;;;6.93;2.35;;;19.70;67.30;;;;;;4983996;28;96521;-42
2021/11/08 02:46:40;;;;;;;7.38;2.75;;;19.70;67.70;;;;;;4985467;28;95680;-43
2021/11/08 02:49:13;;;;;;;8.43;2.53;;;19.70;66.80;;;;;;4985731;28;96135;-42
2021/11/08 02:51:47;;;;;;;6.20;2.65;;;19.80;66.80;;;;;;4985328;28;101777;-43
2021/11/08 02:54:29;;;;;;;5.90;2.78;;;19.80;65.40;;;;;;4987847;28;95706;-42
2021/11/08 02:57:01;;;;;;;5.38;2.47;;;19.80;66.60;;;;;;4985804;28;95888;-43
2021/11/08 02:59:35;;;;;;;6.13;2.47;;;19.90;66.60;;;;;;4982030;28;95989;-45
2021/11/08 03:02:09;;;;;;;3.55;2.13;;;19.90;65.40;;;;;;4989397;28;97641;-42
2021/11/08 03:04:41;;;;;;;6.05;2.17;;;19.90;66.50;;;;;;4983805;28;96013;-45
2021/11/08 03:07:16;;;;;;;6.43;2.15;;;20.00;63.90;;;;;;4982415;28;95748;-43
2021/11/08 03:09:58;;;;;;;5.97;2.78;;;20.00;66.20;;;;;;4981981;28;96556;-45
2021/11/08 03:12:32;;;;;;;4.35;2.10;;;20.00;63.60;;;;;;4983148;28;96547;-44
2021/11/08 03:15:14;;;;;;;4.05;1.77;;;20.00;66.10;;;;;;4984383;28;95317;-44
2021/11/08 03:17:47;;;;;;;4.07;2.00;;;20.10;66.20;;;;;;4976471;28;96447;-43
2021/11/08 03:20:20;;;;;;;5.32;2.28;;;20.10;65.90;;;;;;4978243;28;95909;-44
2021/11/08 03:22:54;;;;;;;4.65;2.22;;;20.10;65.90;;;;;;4978728;28;95654;-45
2021/11/08 03:28:08;;;;;;;2.53;1.63;;;20.20;65.70;;;;;;4976034;28;96138;-43
2021/11/08 03:30:44;;;;;;;5.32;2.13;;;20.20;65.50;;;;;;4968437;28;96158;-45
2021/11/08 03:33:16;;;;;;;6.43;1.92;;;20.20;62.80;;;;;;4981718;28;96970;-44
2021/11/08 03:35:47;;;;;;;3.88;1.90;;;20.20;65.10;;;;;;4981218;28;95841;-44
2021/11/08 03:38:18;;;;;;;4.72;1.73;;;20.30;65.20;;;;;;4981204;28;95830;-43
2021/11/08 03:40:48;;;;;;;2.45;1.52;;;20.30;64.80;;;;;;4981259;28;96020;-44
2021/11/08 03:43:20;;;;;;;3.65;1.45;;;20.30;64.90;;;;;;4982696;28;96685;-42
2021/11/08 03:45:52;;;;;;;4.40;1.90;;;20.40;64.80;;;;;;4982910;28;95862;-43
2021/11/08 03:48:24;;;;;;;6.43;1.75;;;20.40;64.60;;;;;;4983187;28;96098;-45
2021/11/08 03:50:54;;;;;;;3.50;1.73;;;20.40;64.40;;;;;;4982320;28;96603;-44
2021/11/08 03:53:24;;;;;;;7.25;2.05;;;20.50;64.40;;;;;;4982955;28;96323;-44
2021/11/08 03:55:54;;;;;;;4.20;1.95;;;20.50;64.20;;;;;;4982491;28;96490;-44
2021/11/08 03:58:25;;;;;;;5.95;1.98;;;20.60;64.30;;;;;;4992092;28;96298;-45
2021/11/08 04:00:56;;;;;;;4.45;1.65;;;20.60;64.20;;;;;;4980019;28;97960;-43
2021/11/08 04:03:28;;;;;;;;;;;20.60;63.90;;;;;;4982570;28;96727;-45
2021/11/08 04:06:00;;;;;;;4.43;2.17;;;20.60;63.90;;;;;;4983521;28;95916;-46
2021/11/08 04:08:33;;;;;;;6.28;1.80;;;20.60;64.00;;;;;;4985226;28;95923;-45
2021/11/08 04:11:06;;;;;;;3.72;1.88;;;20.50;64.00;;;;;;4984017;28;97171;-42
2021/11/08 04:13:41;;;;;;;4.55;1.77;;;20.60;64.00;;;;;;4982947;28;96433;-43
2021/11/08 04:16:15;;;;;;;4.68;1.90;;;20.50;63.90;;;;;;4983688;28;95852;-46
2021/11/08 04:18:52;;;;;;;9.13;1.85;;;20.50;63.90;;;;;;4985559;28;96016;-44
2021/11/08 04:21:24;;;;;;;3.67;1.60;;;20.50;63.90;;;;;;4983561;28;96617;-45
2021/11/08 04:23:55;;;;;;;6.43;1.58;;;20.60;63.80;;;;;;4984354;28;96590;-44
2021/11/08 04:26:28;;;;;;;3.75;1.40;;;20.60;63.80;;;;;;4984900;28;95647;-46
2021/11/08 04:29:02;;;;;;;6.95;2.17;;;20.60;63.80;;;;;;4971849;28;95941;-44
2021/11/08 04:31:35;;;;;;;7.53;2.30;;;20.60;63.90;;;;;;4978089;28;96560;-45
2021/11/08 04:34:19;;;;;;;3.67;1.27;;;20.60;63.60;;;;;;4966831;28;95958;-44
2021/11/08 04:39:58;;;;;;;4.07;1.70;;;20.50;63.30;;;;;;4985380;28;95824;-46
2021/11/08 04:45:19;;;;;;;5.88;2.17;;;20.50;63.50;;;;;;4983467;28;95791;-45
2021/11/08 04:53:30;;;;;;;8.50;1.80;;;20.40;63.40;;;;;;4985216;28;96437;-46
2021/11/08 05:21:53;;;;;;;9.60;3.50;;;20.60;63.20;;;;;;4983225;28;96756;-46
2021/11/08 05:30:06;;;;;;;5.78;2.58;;;20.60;63.20;;;;;;4972622;28;96262;-45
2021/11/08 05:32:41;;;;;;;8.68;2.97;;;20.60;63.10;;;;;;4983929;28;95718;-45
2021/11/08 05:35:13;;;;;;;4.53;2.53;;;20.60;63.20;;;;;;4983564;28;95712;-43
2021/11/08 05:37:45;;;;;;;6.15;2.67;;;20.60;63.30;;;;;;4981856;28;96001;-44
2021/11/08 05:40:22;;;;;;;7.72;2.58;;;20.70;63.40;;;;;;4982558;28;95985;-43
2021/11/08 05:42:54;;;;;;;6.85;2.70;;;20.80;63.50;;;;;;4983925;28;95868;-46
2021/11/08 05:45:31;;;;;;;5.47;2.58;;;20.80;63.60;;;;;;4984131;28;95741;-43
2021/11/08 05:48:05;;;;;;;4.45;2.00;;;20.90;63.60;;;;;;4983436;28;97693;-43
2021/11/08 05:50:37;;;;;;;6.03;2.20;;;21.00;63.70;;;;;;4983423;28;96730;-43
2021/11/08 05:53:08;;;;;;;3.42;2.40;;;21.10;63.70;;;;;;4983730;28;95787;-42
2021/11/08 05:58:28;;;;;;;4.47;2.10;;;21.20;63.90;;;;;;4982296;28;96875;-45
2021/11/08 06:49:27;;;;;;;4.32;2.25;;;21.70;63.20;;;;;;4983717;28;96165;-43
2021/11/08 06:52:00;;;;;;;6.20;3.40;;;21.80;63.30;;;;;;4984772;28;95794;-41
2021/11/08 06:54:31;;;;;;;5.82;2.67;;;21.70;61.80;;;;;;4983031;28;97775;-44
2021/11/08 06:57:11;;;;;;;;;;;21.70;62.50;;;;;;4982935;28;96095;-41
2021/11/08 06:59:44;;;;;;;2.58;2.22;;;21.70;62.60;;;;;;4980560;28;96607;-39
2021/11/08 07:02:17;;;;;;;5.13;2.28;;;21.80;62.20;;;;;;4980323;28;95914;-43
2021/11/08 07:04:48;;;;;;;3.67;2.30;;;21.80;62.50;;;;;;4982500;28;97019;-46
2021/11/08 07:07:19;;;;;;;7.00;2.17;;;21.70;62.40;;;;;;4981726;28;95863;-45
2021/11/08 07:09:51;;;;;;;4.32;2.13;;;21.80;62.40;;;;;;4982001;28;95852;-46
2021/11/08 07:12:23;;;;;;;7.20;2.70;;;21.80;60.00;;;;;;4982251;28;97877;-44
2021/11/08 07:14:55;;;;;;;5.05;2.10;;;21.70;61.80;;;;;;4977111;28;96618;-45
2021/11/08 07:17:25;;;;;;;;;;;21.70;62.30;;;;;;4979571;28;96484;-41
2021/11/08 07:19:59;;;;;;;4.93;2.27;;;21.70;62.30;;;;;;4983820;28;96198;-45
2021/11/08 07:22:29;;;;;;;3.30;1.60;;;21.70;62.30;;;;;;4982089;28;96475;-43
2021/11/08 07:25:00;;;;;;;4.20;2.17;;;21.60;62.30;;;;;;4981418;28;95936;-43
2021/11/08 07:27:30;;;;;;;4.75;2.20;;;21.60;62.30;;;;;;4979016;28;99159;-47
2021/11/08 07:30:03;;;;;;;3.50;1.48;;;21.60;62.40;;;;;;4970918;28;96466;-43
2021/11/08 07:32:34;;;;;;;3.38;1.92;;;21.60;62.30;;;;;;4979486;28;96044;-46
2021/11/08 07:35:05;;;;;;;4.32;2.00;;;21.60;62.40;;;;;;4979799;28;95985;-46
2021/11/08 07:37:35;;;;;;;4.03;1.67;;;21.60;62.40;;;;;;4981869;28;95782;-45
2021/11/08 07:40:05;;;;;;;2.58;1.65;;;21.60;62.60;;;;;;4979746;28;95856;-45
2021/11/08 07:42:36;;;;;;;2.75;1.90;;;21.60;62.40;;;;;;4983748;28;96534;-44
2021/11/08 07:45:08;;;;;;;1.70;1.38;;;21.60;62.60;;;;;;4983783;28;96556;-42
2021/11/08 07:47:39;;;;;;;2.78;1.58;;;21.60;62.70;;;;;;4986338;28;95657;-45
2021/11/08 07:50:22;;;;;;;2.63;1.63;;;21.60;62.70;;;;;;4986362;28;95668;-46
2021/11/08 07:52:52;;;;;;;2.30;1.58;;;21.60;62.80;;;;;;4986672;28;95728;-42
2021/11/08 07:55:22;;;;;;;3.40;1.67;;;21.60;62.70;;;;;;4985296;28;95986;-46
2021/11/08 07:57:53;;;;;;;2.17;1.60;;;21.60;62.90;;;;;;4980837;28;96089;-44
2021/11/08 08:00:24;;;;;;;2.33;1.20;;;21.60;62.80;;;;;;4984601;28;98639;-46
2021/11/08 08:02:57;;;;;;;3.45;1.77;;;21.60;62.90;;;;;;4984837;28;95833;-46
2021/11/08 08:05:28;;;;;;;2.90;1.42;;;21.50;62.80;;;;;;4983952;28;95926;-46
2021/11/08 08:08:00;;;;;;;1.90;1.38;;;21.50;62.90;;;;;;4982680;28;95885;-43
2021/11/08 08:10:31;;;;;;;2.80;1.33;;;21.50;63.30;;;;;;4984043;28;95891;-44
2021/11/08 08:13:03;;;;;;;1.58;1.48;;;21.50;63.00;;;;;;4983037;28;95768;-46
2021/11/08 08:15:35;;;;;;;2.03;1.55;;;21.50;63.10;;;;;;4983396;28;97419;-44
2021/11/08 08:18:07;;;;;;;3.28;1.80;;;21.50;63.00;;;;;;4984436;28;96119;-46
2021/11/08 08:20:39;;;;;;;1.70;1.60;;;21.50;63.10;;;;;;4984850;28;95948;-44
2021/11/08 08:23:08;;;;;;;;;;;21.50;63.10;;;;;;4967124;28;95691;-46
2021/11/08 08:25:38;;;;;;;2.00;1.33;;;21.50;61.00;;;;;;4984216;28;96547;-46
2021/11/08 08:28:09;;;;;;;2.17;1.98;;;21.50;63.10;;;;;;4976918;28;95933;-44
2021/11/08 08:30:42;;;;;;;2.00;1.15;;;21.40;63.10;;;;;;4973635;28;96154;-44
2021/11/08 08:33:13;;;;;;;1.90;1.60;;;21.40;61.60;;;;;;4984312;28;96033;-44
2021/11/08 08:35:45;;;;;;;;;;;21.40;63.10;;;;;;4984432;28;95928;-46
2021/11/08 08:38:22;;;;;;;1.23;1.00;;;21.40;58.90;;;;;;4983501;28;95886;-46
2021/11/08 08:40:55;;;;;;;1.83;1.17;;;21.40;63.20;;;;;;4980803;28;95875;-44
2021/11/08 08:43:28;;;;;;;1.67;1.00;;;21.40;63.30;;;;;;4982712;28;96527;-43
2021/11/08 08:46:00;;;;;;;1.85;1.25;;;21.40;63.20;;;;;;4981191;28;96170;-47
2021/11/08 08:48:31;;;;;;;1.70;1.13;;;21.30;63.20;;;;;;4982239;28;98399;-45
2021/11/08 08:51:03;;;;;;;1.92;1.13;;;21.30;63.30;;;;;;4981242;28;97473;-45
2021/11/08 08:53:33;;;;;;;1.52;1.10;;;21.30;63.30;;;;;;4981656;28;96619;-43
2021/11/08 08:56:23;;;;;;;1.95;1.13;;;21.30;63.30;;;;;;4982926;28;97394;-45
2021/11/08 08:58:56;;;;;;;1.45;1.08;;;21.20;63.40;;;;;;4979821;28;95948;-41
2021/11/08 09:01:27;;;;;;;1.42;1.17;;;21.20;63.30;;;;;;4982739;28;95868;-39
2021/11/08 09:03:58;;;;;;;1.60;1.00;;;21.10;63.40;;;;;;4981781;28;95770;-44
2021/11/08 09:06:30;;;;;;;2.20;0.95;;;21.10;63.50;;;;;;4986355;28;96249;-44
2021/11/08 09:09:01;;;;;;;4.88;1.17;;;21.00;63.60;;;;;;4989458;28;95563;-46
2021/11/08 09:11:33;;;;;;;1.95;1.20;;;21.00;63.60;;;;;;4987137;28;95813;-42
2021/11/08 09:14:05;;;;;;;1.65;1.00;;;20.90;63.70;;;;;;4986933;28;97110;-45
2021/11/08 09:16:36;;;;;;;2.03;1.10;;;20.90;63.80;;;;;;4985072;28;96846;-45
2021/11/08 09:19:08;;;;;;;1.55;0.90;;;20.90;63.90;;;;;;4986698;28;95985;-43
2021/11/08 09:21:40;;;;;;;1.10;1.10;;;20.80;64.00;;;;;;4986244;28;95878;-43
2021/11/08 09:24:10;;;;;;;2.08;1.45;;;20.70;64.00;;;;;;4987407;28;97725;-41
2021/11/08 09:26:41;;;;;;;1.37;1.27;;;20.70;64.10;;;;;;4987498;28;96448;-44
2021/11/08 09:29:16;;;;;;;1.30;1.17;;;20.70;64.20;;;;;;4974274;28;96066;-45
2021/11/08 09:31:50;;;;;;;1.27;1.05;;;20.60;64.20;;;;;;4980402;28;95914;-45
2021/11/08 09:34:22;;;;;;;2.65;1.42;;;20.60;64.20;;;;;;4987786;28;95889;-44
2021/11/08 09:36:58;;;;;;;1.70;1.25;;;20.60;64.40;;;;;;4985232;28;95878;-47
2021/11/08 09:39:29;;;;;;;1.52;1.38;;;20.50;64.40;;;;;;4987712;28;95929;-46
2021/11/08 09:42:03;;;;;;;1.85;1.17;;;20.50;62.40;;;;;;4984578;28;96618;-43
2021/11/08 09:44:33;;;;;;;1.58;1.02;;;20.40;64.50;;;;;;4977833;28;95675;-47
2021/11/08 09:47:06;;;;;;;1.50;0.93;;;20.40;64.60;;;;;;4982218;28;95921;-44
2021/11/08 09:49:43;;;;;;;1.77;1.10;;;20.40;64.70;;;;;;4981614;28;99270;-46
2021/11/08 09:52:13;;;;;;;2.72;0.95;;;20.30;64.80;;;;;;4983668;28;96757;-45
2021/11/08 09:54:59;;;;;;;1.27;1.02;;;20.30;64.80;;;;;;4985350;28;96087;-45
2021/11/08 09:57:30;;;;;;;1.50;1.40;;;20.30;65.00;;;;;;4986609;28;97619;-45
2021/11/08 10:00:01;;;;;;;1.80;1.20;;;20.20;65.00;;;;;;4986329;28;97522;-45
2021/11/08 10:02:34;;;;;;;1.75;1.08;;;20.20;65.00;;;;;;4986724;27;95923;-44
2021/11/08 10:05:06;;;;;;;2.53;1.17;;;20.10;65.00;;;;;;4985645;28;95826;-46
2021/11/08 10:07:38;;;;;;;1.52;1.00;;;20.10;65.10;;;;;;4999674;28;96022;-41
2021/11/08 10:10:12;;;;;;;3.70;1.60;;;20.10;65.10;;;;;;4983151;28;96036;-46
2021/11/08 10:12:46;;;;;;;2.25;1.33;;;20.00;65.20;;;;;;4985813;28;95948;-46
2021/11/08 10:15:19;;;;;;;1.20;1.10;;;20.00;65.30;;;;;;4986696;28;95551;-46
2021/11/08 10:17:51;;;;;;;1.88;1.77;;;20.00;65.30;;;;;;4981572;28;96380;-46
2021/11/08 10:20:36;;;;;;;1.38;1.10;;;19.90;65.30;;;;;;4978774;28;95443;-43
2021/11/08 10:23:09;;;;;;;1.35;1.23;;;19.90;65.40;;;;;;4977373;28;95576;-46
2021/11/08 10:25:45;;;;;;;1.40;1.30;;;19.80;65.40;;;;;;4982390;28;97642;-42
2021/11/08 10:28:28;;;;;;;1.65;1.50;;;19.80;65.50;;;;;;4978101;28;95846;-46
2021/11/08 10:31:07;;;;;;;3.50;1.73;;;19.80;64.00;;;;;;4977259;28;95906;-46
2021/11/08 10:33:39;;;;;;;1.05;0.90;;;19.70;65.50;;;;;;4985894;28;96148;-47
2021/11/08 10:36:17;;;;;;;1.75;1.63;;;19.70;65.50;;;;;;4985453;28;95691;-46
2021/11/08 10:38:50;;;;;;;1.55;1.45;;;19.70;65.70;;;;;;4986371;28;95998;-44
2021/11/08 10:41:43;;;;;;;2.85;1.50;;;19.60;65.60;;;;;;4986128;28;95748;-46
2021/11/08 10:44:17;;;;;;;1.98;1.42;;;19.60;65.70;;;;;;4985550;28;95664;-46
2021/11/08 10:46:58;;;;;;;1.50;1.17;;;19.60;65.80;;;;;;4987602;28;95626;-45
2021/11/08 10:49:32;;;;;;;;;;;19.60;65.90;;;;;;4986204;28;95902;-45
2021/11/08 10:52:04;;;;;;;1.25;1.13;;;19.50;61.20;;;;;;4989618;28;96170;-46
2021/11/08 10:54:47;;;;;;;1.85;1.10;;;19.40;65.80;;;;;;4984604;28;95472;-45
2021/11/08 10:57:24;;;;;;;4.57;1.00;;;19.50;61.40;;;;;;4987296;28;98179;-45
2021/11/08 10:59:56;;;;;;;2.45;1.25;;;19.40;66.00;;;;;;4983324;28;96278;-46
2021/11/08 11:02:31;;;;;;;3.40;1.55;;;19.40;66.00;;;;;;4984687;28;96100;-44
2021/11/08 11:05:11;;;;;;;3.97;1.95;;;19.30;65.70;;;;;;4987500;28;95918;-46
2021/11/08 11:07:44;;;;;;;2.40;1.52;;;19.20;65.50;;;;;;4986513;28;97506;-45
2021/11/08 11:10:20;;;;;;;7.05;2.00;;;19.10;65.70;;;;;;4986373;28;97083;-44
2021/11/08 11:12:52;;;;;;;2.25;1.48;;;19.10;65.80;;;;;;4983318;28;95691;-44
2021/11/08 11:15:32;;;;;;;2.60;2.00;;;19.00;65.90;;;;;;4982144;28;95712;-46
2021/11/08 11:18:04;;;;;;;2.92;2.15;;;18.90;65.90;;;;;;4983092;28;95879;-45
2021/11/08 11:20:40;;;;;;;4.47;2.05;;;18.90;65.90;;;;;;4983923;28;98950;-45
2021/11/08 11:23:21;;;;;;;2.42;1.58;;;18.80;66.00;;;;;;4977216;28;95912;-45
2021/11/08 11:26:03;;;;;;;4.93;1.88;;;18.80;66.10;;;;;;4975090;28;95756;-46
2021/11/08 11:28:40;;;;;;;2.35;1.92;;;18.70;66.10;;;;;;4977793;28;95472;-45
2021/11/08 11:31:14;;;;;;;5.70;1.90;;;18.70;66.10;;;;;;4987818;28;96061;-46
2021/11/08 11:33:46;;;;;;;2.33;1.98;;;18.70;66.20;;;;;;4987474;28;95850;-44
2021/11/08 11:36:18;;;;;;;2.58;2.05;;;18.60;66.30;;;;;;4984934;28;95939;-46
2021/11/08 11:38:55;;;;;;;2.13;1.83;;;18.60;66.30;;;;;;4986234;28;98035;-43
2021/11/08 11:41:30;;;;;;;2.95;2.10;;;18.50;66.30;;;;;;4980234;28;95879;-41
2021/11/08 11:44:16;;;;;;;6.22;2.20;;;18.50;66.50;;;;;;4976532;28;96023;-45
2021/11/08 11:46:56;;;;;;;2.55;1.88;;;18.50;66.70;;;;;;4978449;28;96023;-44
2021/11/08 11:49:28;;;;;;;3.83;1.70;;;18.40;66.70;;;;;;4989072;28;95647;-44
2021/11/08 11:52:00;;;;;;;4.82;2.05;;;18.40;62.70;;;;;;4985183;28;96379;-41
2021/11/08 11:54:33;;;;;;;5.60;2.38;;;18.40;67.00;;;;;;4989578;28;95738;-42
2021/11/08 11:57:04;;;;;;;4.10;2.10;;;18.40;67.20;;;;;;4988887;28;95553;-43
2021/11/08 11:59:43;;;;;;;5.47;2.70;;;18.20;67.20;;;;;;4989336;28;96191;-44
2021/11/08 12:02:18;;;;;;;2.92;2.38;;;18.20;67.30;;;;;;4985438;28;97624;-45
2021/11/08 12:04:48;;;;;;;2.35;1.70;;;18.20;67.40;;;;;;4988258;28;96078;-45
2021/11/08 12:07:20;;;;;;;2.80;2.27;;;18.10;67.50;;;;;;4984198;28;96365;-38
2021/11/08 12:09:53;;;;;;;4.53;2.13;;;18.10;67.60;;;;;;4985954;28;95660;-44
2021/11/08 12:12:26;;;;;;;2.70;1.98;;;18.10;67.70;;;;;;4986105;28;96066;-42
2021/11/08 12:15:09;;;;;;;5.07;2.47;;;18.00;67.80;;;;;;4987867;28;95861;-42
2021/11/08 12:17:44;;;;;;;4.15;2.20;;;18.00;67.80;;;;;;4985919;28;95781;-43
2021/11/08 12:20:24;;;;;;;4.40;2.50;;;17.90;68.00;;;;;;4986016;28;95811;-39
2021/11/08 12:22:54;;;;;;;4.15;2.45;;;17.90;68.10;;;;;;4984579;28;96784;-43
2021/11/08 12:25:27;;;;;;;2.78;2.33;;;17.90;68.10;;;;;;4982892;28;95875;-41
2021/11/08 12:28:10;;;;;;;4.95;2.70;;;17.80;68.20;;;;;;4982049;28;95831;-42
2021/11/08 12:30:45;;;;;;;2.22;2.03;;;17.80;68.20;;;;;;4974255;28;95957;-42
2021/11/08 12:33:41;;;;;;;5.03;2.70;;;17.70;68.20;;;;;;4983475;28;96000;-43
2021/11/08 12:36:19;;;;;;;3.13;2.03;;;17.70;68.20;;;;;;4985662;28;95765;-42
2021/11/08 12:38:58;;;;;;;3.70;2.60;;;17.60;68.30;;;;;;4989717;28;96266;-44
2021/11/08 12:41:44;;;;;;;3.15;2.38;;;17.60;68.30;;;;;;4986226;28;96043;-44
2021/11/08 12:44:18;;;;;;;3.25;2.28;;;17.60;68.50;;;;;;4993869;28;98704;-41
2021/11/08 12:46:53;;;;;;;3.80;2.78;;;17.60;68.50;;;;;;4989678;28;95763;-41
2021/11/08 12:49:49;;;;;;;4.35;2.40;;;17.50;68.50;;;;;;4990741;28;95630;-42
2021/11/08 12:52:26;;;;;;;4.80;2.35;;;17.50;68.50;;;;;;4989863;28;96130;-45
2021/11/08 12:55:12;;;;;;;3.67;2.30;;;17.40;68.60;;;;;;4989334;28;96618;-45
2021/11/08 12:57:56;;;;;;;4.85;2.22;;;17.40;68.60;;;;;;4987823;28;95838;-42
2021/11/08 13:00:28;;;;;;;7.68;3.00;;;17.40;68.60;;;;;;4987419;28;96120;-40
2021/11/08 13:03:12;;;;;;;2.65;2.22;;;17.30;68.50;;;;;;4991057;28;95522;-42
2021/11/08 13:05:49;;;;;;;2.70;2.42;;;17.30;68.60;;;;;;4989317;28;97756;-44
2021/11/08 13:08:26;;;;;;;4.32;2.60;;;17.30;68.60;;;;;;4989000;28;95833;-40
2021/11/08 13:11:10;;;;;;;4.40;2.55;;;17.20;68.50;;;;;;4987715;28;95814;-42
2021/11/08 13:14:01;;;;;;;3.72;2.15;;;17.20;68.50;;;;;;5020017;27;96003;-45
2021/11/08 13:16:41;;;;;;;3.90;2.70;;;17.10;68.60;;;;;;4988428;28;96415;-41
2021/11/08 13:19:17;;;;;;;3.92;2.53;;;17.10;68.60;;;;;;5001878;28;96329;-42
2021/11/08 13:21:48;;;;;;;3.05;2.45;;;17.10;68.60;;;;;;4988509;28;96623;-42
2021/11/08 13:24:19;;;;;;;3.30;2.95;;;17.10;68.60;;;;;;4987767;28;95326;-43
2021/11/08 13:26:50;;;;;;;3.13;2.45;;;17.00;68.70;;;;;;4988802;28;95940;-45
2021/11/08 13:29:25;;;;;;;4.32;2.60;;;17.00;68.80;;;;;;4974812;28;95869;-43
2021/11/08 13:31:55;;;;;;;4.20;2.53;;;16.90;68.70;;;;;;4982630;28;95464;-43
2021/11/08 13:34:27;;;;;;;4.93;2.50;;;16.90;68.70;;;;;;4989121;28;95851;-41
2021/11/08 13:37:01;;;;;;;3.37;2.13;;;16.90;64.40;;;;;;4986591;28;95863;-41
2021/11/08 13:39:31;;;;;;;4.65;2.55;;;16.90;66.40;;;;;;5019051;27;95883;-41
2021/11/08 13:42:02;;;;;;;2.80;2.10;;;16.90;68.70;;;;;;4987769;28;95348;-42
2021/11/08 13:44:32;;;;;;;7.72;2.53;;;16.80;68.70;;;;;;4989897;28;95781;-40
2021/11/08 13:47:02;;;;;;;2.28;1.90;;;16.80;68.80;;;;;;4988064;28;95930;-44
2021/11/08 13:49:33;;;;;;;3.97;2.55;;;16.80;68.80;;;;;;4988757;28;96318;-44
2021/11/08 13:52:06;;;;;;;3.67;2.30;;;16.70;66.40;;;;;;4989157;28;95907;-44
2021/11/08 13:54:38;;;;;;;4.50;2.42;;;16.70;68.80;;;;;;4990772;28;95694;-40
2021/11/08 13:57:12;;;;;;;3.58;2.03;;;16.70;66.40;;;;;;4988222;28;95953;-40
2021/11/08 13:59:47;;;;;;;2.92;2.63;;;16.70;68.90;;;;;;4986605;28;95976;-45
2021/11/08 14:02:20;;;;;;;3.10;2.38;;;16.60;68.80;;;;;;4989123;28;99773;-39
2021/11/08 14:04:59;;;;;;;3.63;2.00;;;16.60;68.90;;;;;;4987030;28;98108;-39
2021/11/08 14:07:31;;;;;;;3.88;2.60;;;16.50;68.80;;;;;;4985778;28;96133;-42
2021/11/08 14:10:02;;;;;;;;;;;16.50;68.80;;;;;;4988267;28;95663;-40
2021/11/08 14:12:39;;;;;;;5.03;2.55;;;16.50;68.90;;;;;;4984940;28;96024;-41
2021/11/08 14:15:10;;;;;;;3.67;2.72;;;16.50;69.00;;;;;;4989617;28;95621;-43
2021/11/08 14:17:42;;;;;;;5.17;2.43;;;16.40;68.90;;;;;;4987150;28;96489;-45
2021/11/08 14:20:17;;;;;;;3.88;2.47;;;16.40;69.00;;;;;;4984954;28;97295;-42
2021/11/08 14:22:48;;;;;;;3.00;1.92;;;16.40;69.00;;;;;;4985321;28;98127;-44
2021/11/08 14:25:19;;;;;;;3.85;2.28;;;16.40;69.00;;;;;;4984670;28;95788;-41
2021/11/08 14:27:49;;;;;;;3.08;2.22;;;16.30;69.00;;;;;;4974018;28;96174;-39
2021/11/08 14:30:23;;;;;;;3.40;2.40;;;16.30;69.00;;;;;;4973497;28;96070;-44
2021/11/08 14:32:54;;;;;;;4.60;2.13;;;16.30;69.00;;;;;;4984813;28;95214;-43
2021/11/08 14:35:28;;;;;;;5.35;2.60;;;16.30;69.00;;;;;;4987864;28;95627;-45
2021/11/08 14:38:03;;;;;;;2.63;1.92;;;16.20;69.00;;;;;;4984832;28;95905;-43
2021/11/08 14:40:42;;;;;;;3.83;2.47;;;16.20;69.00;;;;;;4986319;28;95911;-42
2021/11/08 14:43:17;;;;;;;4.90;2.40;;;16.20;69.10;;;;;;4986558;28;95238;-43
2021/11/08 14:46:04;;;;;;;3.50;2.40;;;16.10;69.10;;;;;;4986459;28;95513;-44
2021/11/08 14:48:39;;;;;;;2.70;2.20;;;16.10;69.00;;;;;;4987963;28;96637;-41
2021/11/08 14:51:28;;;;;;;3.55;1.98;;;16.10;69.00;;;;;;4970516;28;95625;-45
2021/11/08 14:54:02;;;;;;;3.17;2.10;;;16.10;69.10;;;;;;4986339;28;95940;-43
2021/11/08 14:56:36;;;;;;;3.60;2.22;;;16.10;69.10;;;;;;4987699;28;95664;-41
2021/11/08 14:59:14;;;;;;;3.08;2.17;;;16.00;69.10;;;;;;4984911;28;96412;-43
2021/11/08 15:01:47;;;;;;;4.05;2.38;;;16.00;69.10;;;;;;4988664;28;95806;-40
2021/11/08 15:04:22;;;;;;;4.55;2.20;;;16.00;69.10;;;;;;4987486;28;98348;-43